DTTJ/DJE METAR and TAF weather

Enter ICAO airport designator
Station Type Date Time Source
DTTJ METAR 2019/10/16 19:30 UTC NOAA

DTTJ 161930Z 08007KT 9999 SCT023 24/18 Q1019 NOSIG


Station Type Date Time Source
DTTJ Decoded METAR 2019/10/16 19:30 UTC NOAA

Djerba Mellita, Tunisia (DTTJ) 33-52N 010-46E 4M
Oct 16, 2019 - 03:30 PM EDT / 2019.10.16 1930 UTC
Wind: from the E (080 degrees) at 8 MPH (7 KT):0
Visibility: greater than 7 mile(s):0
Sky conditions: partly cloudy
Temperature: 75 F (24 C)
Dew Point: 64 F (18 C)
Relative Humidity: 69%
Pressure (altimeter): 30.09 in. Hg (1019 hPa)
ob: DTTJ 161930Z 08007KT 9999 SCT023 24/18 Q1019 NOSIG
cycle: 19

Station Type Date Time Source
DTTJ TAF 2019/10/16 18:06 UTC NOAA

TAF DTTJ 161700Z 1618/1718 08008KTPQ999 FEW023
BECMG 1700/1702 VRB03KT PROB30
TEMPO 1702/1706 4000 SHRA SCT020
BECMG 1711/1713 01008KT
BECMG 1715/1717 10008KT

Example: see airport list